Time;durP1;ratioP1;P1;durP2;ratioP2;P2;SDS_P1;SDS_P2;PMS_P1;PMS_P2;Temp;Humidity;BMP_temperature;BMP_pressure;BME280_temperature;BME280_humidity;BME280_pressure;Samples;Min_cycle;Max_cycle;Signal;HPM_P1;HPM_P2
2021/12/06 00:00:58;;;;;;;39.72;24.48;;;2.00;99.90;;;;;;4911858;29;20384;-59
2021/12/06 00:03:40;;;;;;;37.33;24.08;;;2.00;99.90;;;;;;4928284;29;20052;-60
2021/12/06 00:06:06;;;;;;;39.03;24.70;;;2.00;99.90;;;;;;4928621;29;20040;-58
2021/12/06 00:08:32;;;;;;;38.17;24.17;;;2.00;99.90;;;;;;4928437;29;20593;-59
2021/12/06 00:10:58;;;;;;;42.00;24.33;;;2.00;99.90;;;;;;4904964;29;20040;-59
2021/12/06 00:13:24;;;;;;;39.60;24.45;;;2.00;99.90;;;;;;4896051;29;20062;-60
2021/12/06 00:15:51;;;;;;;40.05;24.45;;;2.00;99.90;;;;;;4928571;29;20036;-59
2021/12/06 00:18:18;;;;;;;40.58;24.15;;;2.10;99.90;;;;;;4921092;29;20478;-59
2021/12/06 00:20:44;;;;;;;37.03;23.17;;;2.00;99.90;;;;;;4911132;29;20525;-59
2021/12/06 00:23:11;;;;;;;39.47;23.35;;;2.10;99.90;;;;;;4891474;29;20095;-60
2021/12/06 00:25:37;;;;;;;37.15;23.27;;;2.10;99.90;;;;;;4927384;29;20051;-60
2021/12/06 00:28:03;;;;;;;41.70;24.50;;;2.00;99.90;;;;;;4909605;29;20052;-59
2021/12/06 00:30:29;;;;;;;38.85;24.30;;;2.00;99.90;;;;;;4911460;29;20193;-60
2021/12/06 00:32:55;;;;;;;42.40;24.30;;;2.00;99.90;;;;;;4909841;29;20495;-59
2021/12/06 00:35:23;;;;;;;40.88;25.08;;;2.10;99.90;;;;;;4887968;29;20055;-58
2021/12/06 00:37:58;;;;;;;41.90;24.95;;;2.10;99.90;;;;;;4927535;29;20047;-60
2021/12/06 00:40:32;;;;;;;41.92;25.15;;;2.10;99.90;;;;;;4928118;29;20920;-60
2021/12/06 00:42:58;;;;;;;40.92;24.15;;;2.10;99.90;;;;;;4910184;29;20077;-59
2021/12/06 00:45:25;;;;;;;41.92;25.25;;;2.10;99.90;;;;;;4906677;29;20070;-59
2021/12/06 00:47:51;;;;;;;40.28;25.15;;;2.10;99.90;;;;;;4910117;29;20555;-60
2021/12/06 00:50:18;;;;;;;45.08;25.92;;;2.10;99.90;;;;;;4920302;29;20055;-60
2021/12/06 00:52:45;;;;;;;37.47;23.95;;;2.10;99.90;;;;;;4900585;28;20207;-59
2021/12/06 00:55:12;;;;;;;40.47;24.88;;;2.10;99.90;;;;;;4923572;29;20419;-60
2021/12/06 00:57:39;;;;;;;41.90;24.90;;;2.10;99.90;;;;;;4909744;29;20158;-59
2021/12/06 01:00:16;;;;;;;39.25;23.30;;;2.00;99.90;;;;;;4927808;29;20047;-59
2021/12/06 01:02:42;;;;;;;36.60;22.92;;;2.10;99.90;;;;;;4909504;29;20063;-59
2021/12/06 01:05:09;;;;;;;43.03;24.38;;;2.10;99.90;;;;;;4910837;29;20043;-59
2021/12/06 01:07:35;;;;;;;42.75;24.63;;;2.10;99.90;;;;;;4879355;29;20095;-59
2021/12/06 01:10:02;;;;;;;41.40;24.63;;;2.10;99.90;;;;;;4919477;29;20086;-59
2021/12/06 01:12:28;;;;;;;37.53;24.50;;;2.10;99.90;;;;;;4911633;29;20056;-59
2021/12/06 01:14:55;;;;;;;39.63;24.38;;;2.10;99.90;;;;;;4926248;29;20139;-60
2021/12/06 01:17:20;;;;;;;42.03;24.52;;;2.10;99.90;;;;;;4910313;29;20123;-59
2021/12/06 01:19:46;;;;;;;39.58;24.58;;;2.10;99.90;;;;;;4926183;29;20115;-59
2021/12/06 01:24:45;;;;;;;39.20;24.25;;;2.10;99.90;;;;;;4909073;29;20054;-58
2021/12/06 01:30:03;;;;;;;41.33;24.85;;;2.10;99.90;;;;;;4908978;29;20154;-60
2021/12/06 01:40:26;;;;;;;43.40;26.27;;;2.10;99.90;;;;;;4925119;29;20147;-59
2021/12/06 01:42:52;;;;;;;42.70;26.02;;;2.10;99.90;;;;;;4879727;29;20090;-60
2021/12/06 01:45:18;;;;;;;42.30;25.15;;;2.10;99.90;;;;;;4894661;29;20055;-59
2021/12/06 01:47:46;;;;;;;41.35;25.30;;;2.10;99.90;;;;;;4910239;29;20402;-59
2021/12/06 01:50:18;;;;;;;45.05;26.20;;;2.20;99.90;;;;;;4927571;29;20058;-60
2021/12/06 01:52:48;;;;;;;42.70;26.00;;;2.10;99.90;;;;;;4909209;29;20400;-60
2021/12/06 01:55:22;;;;;;;41.75;25.48;;;2.10;99.90;;;;;;4893641;29;20055;-59
2021/12/06 01:57:47;;;;;;;44.97;27.20;;;2.10;99.90;;;;;;4892344;29;20051;-59
2021/12/06 02:00:26;;;;;;;46.22;27.67;;;2.20;99.90;;;;;;4886722;29;20115;-59
2021/12/06 02:02:52;;;;;;;48.03;26.67;;;2.10;99.90;;;;;;4904248;29;20058;-60
2021/12/06 02:05:18;;;;;;;45.70;26.88;;;2.10;99.90;;;;;;4920964;29;20525;-60
2021/12/06 02:07:44;;;;;;;47.92;27.17;;;2.10;99.90;;;;;;4922390;29;20051;-60
2021/12/06 02:10:10;;;;;;;45.83;26.77;;;2.10;99.90;;;;;;4920263;29;20526;-59
2021/12/06 02:12:36;;;;;;;49.65;27.48;;;2.10;99.90;;;;;;4920889;29;20510;-59
2021/12/06 02:15:23;;;;;;;48.90;28.10;;;2.10;99.90;;;;;;4923915;29;20048;-59
2021/12/06 02:17:59;;;;;;;46.97;26.85;;;2.10;99.90;;;;;;4923769;29;20085;-59
2021/12/06 02:20:28;;;;;;;46.33;26.00;;;2.10;99.90;;;;;;4906359;29;20409;-58
2021/12/06 02:22:55;;;;;;;46.15;25.48;;;2.10;99.90;;;;;;4888981;29;20079;-58
2021/12/06 02:25:22;;;;;;;41.10;24.92;;;2.10;99.90;;;;;;4905185;29;20051;-60
2021/12/06 02:27:51;;;;;;;47.65;25.60;;;2.10;99.90;;;;;;4923180;29;20391;-59
2021/12/06 02:30:19;;;;;;;49.72;27.35;;;2.10;99.90;;;;;;4922958;29;20388;-61
2021/12/06 02:32:47;;;;;;;45.75;26.40;;;2.10;99.90;;;;;;4904893;29;20547;-60
2021/12/06 02:35:18;;;;;;;45.67;26.13;;;2.10;99.90;;;;;;4903585;29;20043;-60
2021/12/06 02:37:44;;;;;;;51.05;26.73;;;2.10;99.90;;;;;;4905923;29;20055;-59
2021/12/06 02:40:27;;;;;;;45.95;26.05;;;2.10;99.90;;;;;;4873925;29;20072;-59
2021/12/06 02:42:54;;;;;;;48.17;26.65;;;2.10;99.90;;;;;;4922853;29;20044;-59
2021/12/06 02:45:24;;;;;;;52.85;28.20;;;2.10;99.90;;;;;;4923195;29;20052;-60
2021/12/06 02:47:53;;;;;;;51.85;27.80;;;2.10;99.90;;;;;;4901209;29;20058;-59
2021/12/06 02:50:26;;;;;;;54.90;28.08;;;2.10;99.90;;;;;;4918323;29;20048;-60
2021/12/06 02:52:54;;;;;;;;;;;2.10;99.90;;;;;;4908651;29;20183;-59
2021/12/06 02:57:58;;;;;;;56.30;28.25;;;2.00;99.90;;;;;;4926103;29;20106;-59
2021/12/06 03:00:25;;;;;;;57.08;29.35;;;2.00;99.90;;;;;;4925602;29;20036;-59
2021/12/06 03:02:51;;;;;;;56.80;29.17;;;2.00;99.90;;;;;;4907764;29;20513;-60
2021/12/06 03:05:17;;;;;;;57.78;28.83;;;2.00;99.90;;;;;;4907991;29;20043;-59
2021/12/06 03:07:47;;;;;;;58.10;29.90;;;2.00;99.90;;;;;;4907878;29;20518;-59
2021/12/06 03:10:13;;;;;;;56.17;27.80;;;2.00;99.90;;;;;;4887473;29;20059;-59
2021/12/06 03:12:39;;;;;;;55.65;29.13;;;2.00;99.90;;;;;;4926042;29;20051;-59
2021/12/06 03:15:06;;;;;;;58.80;29.77;;;2.00;99.90;;;;;;4895102;29;20051;-59
2021/12/06 03:17:33;;;;;;;59.40;30.85;;;2.00;99.90;;;;;;4911015;29;20048;-60
2021/12/06 03:20:00;;;;;;;62.70;31.23;;;2.00;99.90;;;;;;4930275;29;20517;-59
2021/12/06 03:22:26;;;;;;;58.42;29.23;;;2.00;99.90;;;;;;4912131;29;20176;-60
2021/12/06 03:24:52;;;;;;;57.25;29.23;;;2.00;99.90;;;;;;4910972;29;20055;-59
2021/12/06 03:27:19;;;;;;;57.22;28.25;;;2.10;99.90;;;;;;4881586;29;20052;-60
2021/12/06 03:29:45;;;;;;;61.60;29.83;;;2.00;99.90;;;;;;4897851;29;20056;-59
2021/12/06 03:32:11;;;;;;;53.60;28.17;;;2.10;99.90;;;;;;4905592;29;20809;-60
2021/12/06 03:34:38;;;;;;;54.70;29.40;;;2.00;99.90;;;;;;4912627;29;20055;-59
2021/12/06 03:37:06;;;;;;;63.35;32.00;;;2.10;99.90;;;;;;4929104;29;20399;-59
2021/12/06 03:39:40;;;;;;;58.53;29.17;;;2.10;99.90;;;;;;4911874;29;20052;-60
2021/12/06 03:42:09;;;;;;;63.55;31.17;;;2.10;99.90;;;;;;4911985;29;20476;-59
2021/12/06 03:44:36;;;;;;;57.45;30.77;;;2.10;99.90;;;;;;4912716;29;20051;-60
2021/12/06 03:47:09;;;;;;;60.95;30.48;;;2.10;99.90;;;;;;4928224;29;20394;-59
2021/12/06 03:49:36;;;;;;;56.72;28.73;;;2.10;99.90;;;;;;4897077;29;20127;-58
2021/12/06 03:52:02;;;;;;;60.53;30.65;;;2.20;99.90;;;;;;4906831;29;20597;-59
2021/12/06 03:54:29;;;;;;;56.08;29.55;;;2.20;99.90;;;;;;4928435;29;20976;-60
2021/12/06 03:56:56;;;;;;;59.65;30.08;;;2.20;99.90;;;;;;4927307;29;20109;-60
2021/12/06 03:59:22;;;;;;;54.97;29.30;;;2.20;99.90;;;;;;4904864;29;20123;-59
2021/12/06 04:01:48;;;;;;;58.10;30.42;;;2.20;99.90;;;;;;4928023;29;20052;-59
2021/12/06 04:04:15;;;;;;;58.92;28.98;;;2.20;99.90;;;;;;4928761;29;20071;-59
2021/12/06 04:06:43;;;;;;;57.22;29.67;;;2.20;99.90;;;;;;4895807;29;20198;-60
2021/12/06 04:09:09;;;;;;;58.05;30.35;;;2.20;99.90;;;;;;4907832;29;20055;-60
2021/12/06 04:11:36;;;;;;;63.40;30.60;;;2.20;99.90;;;;;;4906945;29;20055;-60
2021/12/06 04:14:04;;;;;;;56.85;30.30;;;2.20;99.90;;;;;;4901470;29;20130;-60
2021/12/06 04:16:31;;;;;;;58.35;29.85;;;2.20;99.90;;;;;;4895485;29;20047;-60
2021/12/06 04:18:57;;;;;;;55.65;28.52;;;2.20;99.90;;;;;;4895925;29;20411;-59
2021/12/06 04:21:26;;;;;;;61.03;29.92;;;2.20;99.90;;;;;;4928343;29;20070;-60
2021/12/06 04:23:52;;;;;;;58.72;31.30;;;2.20;99.90;;;;;;4910452;29;20119;-58
2021/12/06 04:26:19;;;;;;;59.38;30.33;;;2.20;99.90;;;;;;4911864;29;20126;-60
2021/12/06 04:28:49;;;;;;;60.67;31.27;;;2.30;99.90;;;;;;4910134;29;20425;-59
2021/12/06 04:31:18;;;;;;;56.80;30.00;;;2.20;99.90;;;;;;4912048;29;20130;-60
2021/12/06 04:33:44;;;;;;;58.65;30.10;;;2.20;99.90;;;;;;4894931;29;20056;-59
2021/12/06 04:36:10;;;;;;;57.65;30.55;;;2.30;99.90;;;;;;4927735;29;20044;-59
2021/12/06 04:38:36;;;;;;;59.55;30.48;;;2.30;99.90;;;;;;4894965;29;20048;-60
2021/12/06 04:41:03;;;;;;;66.88;31.95;;;2.30;99.90;;;;;;4927711;29;20668;-59
2021/12/06 04:43:29;;;;;;;68.10;31.63;;;2.30;99.90;;;;;;4895853;29;20118;-60
2021/12/06 04:45:55;;;;;;;59.40;29.70;;;2.30;99.90;;;;;;4911648;29;20044;-59
2021/12/06 04:48:21;;;;;;;60.53;30.05;;;2.30;99.90;;;;;;4911318;29;20054;-59
2021/12/06 04:50:47;;;;;;;59.13;29.63;;;2.30;99.90;;;;;;4910934;29;20498;-59
2021/12/06 04:53:19;;;;;;;57.83;29.33;;;2.30;99.90;;;;;;4912557;29;20231;-59
2021/12/06 04:55:59;;;;;;;57.07;29.67;;;2.30;99.90;;;;;;4926265;29;20067;-60
2021/12/06 04:58:29;;;;;;;65.43;31.95;;;2.30;99.90;;;;;;4910520;29;20044;-59
2021/12/06 05:01:00;;;;;;;60.63;29.15;;;2.30;99.90;;;;;;4926843;29;20059;-59
2021/12/06 05:03:27;;;;;;;64.97;30.52;;;2.30;99.90;;;;;;4927577;29;20562;-59
2021/12/06 05:06:08;;;;;;;58.90;30.23;;;2.30;99.90;;;;;;4936268;29;20052;-59
2021/12/06 05:08:38;;;;;;;58.45;28.35;;;2.30;99.90;;;;;;4926607;29;20428;-60
2021/12/06 05:11:05;;;;;;;61.83;29.90;;;2.30;99.90;;;;;;4925388;29;20062;-60
2021/12/06 05:13:32;;;;;;;62.95;29.73;;;2.30;99.90;;;;;;4925013;29;20479;-60
2021/12/06 05:15:58;;;;;;;63.65;30.08;;;2.30;99.90;;;;;;4926016;29;20047;-60
2021/12/06 05:18:24;;;;;;;63.72;29.30;;;2.30;99.90;;;;;;4924172;29;20066;-59
2021/12/06 05:20:51;;;;;;;63.60;30.73;;;2.30;99.90;;;;;;4923757;29;20044;-58
2021/12/06 05:23:18;;;;;;;64.45;30.08;;;2.30;99.90;;;;;;4921268;29;21830;-59
2021/12/06 05:25:44;;;;;;;66.78;30.48;;;2.30;99.90;;;;;;4923224;29;20055;-59
2021/12/06 05:28:10;;;;;;;59.22;29.70;;;2.30;99.90;;;;;;4915678;29;20051;-60
2021/12/06 05:30:38;;;;;;;60.25;29.98;;;2.30;99.90;;;;;;4922241;29;20048;-59
2021/12/06 05:33:06;;;;;;;59.30;29.33;;;2.30;99.90;;;;;;4922731;29;20089;-60
2021/12/06 05:35:32;;;;;;;65.85;30.33;;;2.40;99.90;;;;;;4920761;29;20127;-60
2021/12/06 05:37:59;;;;;;;65.45;30.17;;;2.40;99.90;;;;;;4921021;29;20074;-60
2021/12/06 05:40:32;;;;;;;62.90;29.77;;;2.30;99.90;;;;;;4922517;29;20169;-59
2021/12/06 05:42:59;;;;;;;63.60;31.10;;;2.30;99.90;;;;;;4920633;29;20048;-60
2021/12/06 05:45:28;;;;;;;60.72;28.65;;;2.30;99.90;;;;;;4921614;29;20040;-58
2021/12/06 05:47:55;;;;;;;67.20;29.83;;;2.30;99.90;;;;;;4923853;29;20087;-60
2021/12/06 05:50:24;;;;;;;64.00;30.38;;;2.30;99.90;;;;;;4922199;29;20043;-60
2021/12/06 05:52:52;;;;;;;64.50;29.67;;;2.30;99.90;;;;;;4920641;29;20070;-59
2021/12/06 05:55:19;;;;;;;67.22;31.13;;;2.30;99.90;;;;;;4903116;29;20573;-61
2021/12/06 05:57:45;;;;;;;68.72;30.42;;;2.30;99.90;;;;;;4921114;29;20063;-60
2021/12/06 06:00:14;;;;;;;64.45;29.27;;;2.30;99.90;;;;;;4905200;29;20040;-59
2021/12/06 06:02:41;;;;;;;68.00;30.05;;;2.30;99.90;;;;;;4922233;29;20047;-59
2021/12/06 06:05:09;;;;;;;66.68;29.98;;;2.30;99.90;;;;;;4890340;29;20624;-59
2021/12/06 06:07:35;;;;;;;65.00;31.35;;;2.40;99.90;;;;;;4907364;29;20094;-59
2021/12/06 06:10:01;;;;;;;66.18;30.83;;;2.30;99.90;;;;;;4923305;29;20603;-59
2021/12/06 06:12:27;;;;;;;69.68;30.33;;;2.30;99.90;;;;;;4922892;29;20040;-59
2021/12/06 06:14:53;;;;;;;66.30;30.23;;;2.30;99.90;;;;;;4923122;29;20039;-60
2021/12/06 06:17:20;;;;;;;70.72;31.92;;;2.30;99.90;;;;;;4905527;29;20052;-59
2021/12/06 06:19:51;;;;;;;73.20;30.95;;;2.30;99.90;;;;;;4906523;29;20054;-60
2021/12/06 06:22:17;;;;;;;65.07;30.15;;;2.30;99.90;;;;;;4909205;29;20118;-60
2021/12/06 06:24:43;;;;;;;66.05;30.85;;;2.30;99.90;;;;;;4906820;29;20043;-60
2021/12/06 06:27:09;;;;;;;74.22;31.40;;;2.30;99.90;;;;;;4907310;29;20059;-59
2021/12/06 06:29:35;;;;;;;65.10;30.95;;;2.30;99.90;;;;;;4908798;29;20051;-60
2021/12/06 06:32:03;;;;;;;66.00;29.95;;;2.30;99.90;;;;;;4876802;29;20044;-59
2021/12/06 06:34:28;;;;;;;69.03;29.92;;;2.30;99.90;;;;;;4906787;29;20055;-59
2021/12/06 06:36:55;;;;;;;62.17;28.92;;;2.30;99.90;;;;;;4903056;29;20131;-60
2021/12/06 06:39:22;;;;;;;61.88;27.15;;;2.20;99.90;;;;;;4900824;29;20047;-60
2021/12/06 06:41:52;;;;;;;63.08;28.60;;;2.20;99.90;;;;;;4905092;29;20062;-60
2021/12/06 06:44:18;;;;;;;68.28;29.20;;;2.20;99.90;;;;;;4923714;29;20051;-59
2021/12/06 06:46:45;;;;;;;63.83;28.50;;;2.20;99.90;;;;;;4875441;29;20051;-60
2021/12/06 06:49:12;;;;;;;59.95;27.70;;;2.20;99.90;;;;;;4923463;29;20048;-60
2021/12/06 06:51:38;;;;;;;59.92;27.10;;;2.20;99.90;;;;;;4895338;29;20434;-60
2021/12/06 06:54:06;;;;;;;60.05;28.40;;;2.20;99.90;;;;;;4899463;29;20071;-59
2021/12/06 06:56:33;;;;;;;68.60;29.42;;;2.20;99.90;;;;;;4910599;29;20107;-60
2021/12/06 06:58:59;;;;;;;68.75;28.50;;;2.20;99.90;;;;;;4926843;29;20055;-59
2021/12/06 07:01:25;;;;;;;64.07;28.50;;;2.20;99.90;;;;;;4925199;29;20039;-60
2021/12/06 07:03:53;;;;;;;64.50;28.65;;;2.20;99.90;;;;;;4928679;29;20179;-60
2021/12/06 07:06:24;;;;;;;65.68;29.42;;;2.20;99.90;;;;;;4926789;29;20126;-58
2021/12/06 07:08:51;;;;;;;61.40;28.50;;;2.20;99.90;;;;;;4926279;29;20043;-60
2021/12/06 07:11:18;;;;;;;59.50;28.52;;;2.20;99.90;;;;;;4912506;29;20418;-60
2021/12/06 07:13:47;;;;;;;67.10;30.02;;;2.20;99.90;;;;;;4934659;28;20052;-60
2021/12/06 07:16:14;;;;;;;65.85;29.33;;;2.10;99.90;;;;;;4926711;29;20515;-60
2021/12/06 07:18:39;;;;;;;71.00;29.77;;;2.20;99.90;;;;;;4922458;29;20071;-59
2021/12/06 07:21:06;;;;;;;68.78;31.08;;;2.20;99.90;;;;;;4927733;29;20082;-59
2021/12/06 07:23:34;;;;;;;68.10;29.13;;;2.20;99.90;;;;;;4926429;29;20047;-59
2021/12/06 07:26:00;;;;;;;69.55;30.00;;;2.30;99.90;;;;;;4927311;29;20042;-59
2021/12/06 07:28:26;;;;;;;71.95;31.17;;;2.20;99.90;;;;;;4926715;29;20047;-59
2021/12/06 07:30:52;;;;;;;81.65;32.10;;;2.20;99.90;;;;;;4930253;29;20040;-58
2021/12/06 07:33:18;;;;;;;75.70;32.08;;;2.20;99.90;;;;;;4937006;28;20087;-60
2021/12/06 07:35:44;;;;;;;77.85;32.10;;;2.30;99.90;;;;;;4928556;29;20056;-60
2021/12/06 07:38:10;;;;;;;74.97;31.65;;;2.20;99.90;;;;;;4925298;29;20036;-59
2021/12/06 07:40:36;;;;;;;78.75;32.45;;;2.20;99.90;;;;;;4925563;29;20427;-59
2021/12/06 07:43:02;;;;;;;72.13;29.77;;;2.20;99.90;;;;;;4924456;29;20047;-59
2021/12/06 07:45:28;;;;;;;76.15;31.98;;;2.20;99.90;;;;;;4925479;29;20040;-60
2021/12/06 07:47:53;;;;;;;71.93;31.30;;;2.20;99.90;;;;;;4922037;29;20047;-58
2021/12/06 07:50:21;;;;;;;72.40;30.88;;;2.20;99.90;;;;;;4926215;29;20622;-59
2021/12/06 07:52:50;;;;;;;72.22;31.73;;;2.20;99.90;;;;;;4926526;29;20483;-58
2021/12/06 07:55:19;;;;;;;73.20;30.38;;;2.20;99.90;;;;;;4926506;29;20134;-60
2021/12/06 07:57:45;;;;;;;71.55;29.80;;;2.20;99.90;;;;;;4928254;29;20570;-59
2021/12/06 08:00:20;;;;;;;68.78;30.80;;;2.20;99.90;;;;;;4919138;29;20090;-59
2021/12/06 08:02:47;;;;;;;70.82;30.02;;;2.20;99.90;;;;;;4923638;29;20126;-60
2021/12/06 08:05:32;;;;;;;75.57;30.55;;;2.20;99.90;;;;;;4923692;29;20043;-59
2021/12/06 08:08:00;;;;;;;67.15;28.60;;;2.20;99.90;;;;;;4909549;29;20495;-58
2021/12/06 08:10:30;;;;;;;72.25;28.85;;;2.20;99.90;;;;;;4925826;29;20043;-59
2021/12/06 08:12:56;;;;;;;74.00;29.30;;;2.20;99.90;;;;;;4924367;29;20253;-59
2021/12/06 08:15:22;;;;;;;70.40;28.50;;;2.20;99.90;;;;;;4924163;29;20051;-59
2021/12/06 08:17:48;;;;;;;74.97;30.65;;;2.20;99.90;;;;;;4904853;29;20488;-60
2021/12/06 08:20:13;;;;;;;77.68;30.65;;;2.20;99.90;;;;;;4917713;29;20059;-60
2021/12/06 08:22:40;;;;;;;72.57;29.88;;;2.30;99.90;;;;;;4921800;29;20405;-60
2021/12/06 08:25:08;;;;;;;79.25;32.00;;;2.20;99.90;;;;;;4904197;29;20040;-59
2021/12/06 08:27:34;;;;;;;81.05;31.33;;;2.20;99.90;;;;;;4924813;29;20553;-60
2021/12/06 08:30:00;;;;;;;85.13;31.95;;;2.30;99.90;;;;;;4941599;29;20055;-59
2021/12/06 08:32:26;;;;;;;77.70;31.23;;;2.30;99.90;;;;;;4923985;29;20443;-59
2021/12/06 08:34:52;;;;;;;78.47;32.42;;;2.30;99.90;;;;;;4904454;29;20079;-58
2021/12/06 08:37:18;;;;;;;84.68;31.40;;;2.30;99.90;;;;;;4906356;29;21349;-60
2021/12/06 08:39:44;;;;;;;86.80;31.35;;;2.30;99.90;;;;;;4905563;29;20627;-60
2021/12/06 08:42:10;;;;;;;80.90;33.20;;;2.30;99.90;;;;;;4909367;29;20056;-59
2021/12/06 08:44:36;;;;;;;77.13;31.38;;;2.30;99.90;;;;;;4880362;29;20044;-60
2021/12/06 08:47:02;;;;;;;79.75;30.63;;;2.30;99.90;;;;;;4906687;29;20055;-58
2021/12/06 08:49:30;;;;;;;80.03;32.10;;;2.30;99.90;;;;;;4907664;29;20623;-59
2021/12/06 08:51:57;;;;;;;80.47;31.95;;;2.30;99.90;;;;;;4893064;29;20366;-59
2021/12/06 08:54:29;;;;;;;84.35;32.80;;;2.40;99.90;;;;;;4906825;29;20163;-60
2021/12/06 08:57:01;;;;;;;77.55;31.10;;;2.40;99.90;;;;;;4912901;29;20078;-59
2021/12/06 08:59:27;;;;;;;79.90;30.92;;;2.40;99.90;;;;;;4911199;29;20175;-59
2021/12/06 09:01:57;;;;;;;76.93;32.13;;;2.40;99.90;;;;;;4904700;29;20066;-59
2021/12/06 09:04:26;;;;;;;79.30;30.90;;;2.40;99.90;;;;;;4919135;29;20044;-59
2021/12/06 09:06:53;;;;;;;80.05;31.05;;;2.50;99.90;;;;;;4923635;29;20119;-58
2021/12/06 09:09:21;;;;;;;72.88;29.65;;;2.50;99.90;;;;;;4922685;29;20521;-59
2021/12/06 09:11:48;;;;;;;76.53;30.75;;;2.50;99.90;;;;;;4924546;29;20487;-59
2021/12/06 09:14:16;;;;;;;78.90;30.92;;;2.50;99.90;;;;;;4921965;29;20047;-59
2021/12/06 09:16:43;;;;;;;77.35;30.80;;;2.50;99.90;;;;;;4918844;29;20496;-60
2021/12/06 09:19:11;;;;;;;76.75;29.25;;;2.60;99.90;;;;;;4926407;29;20498;-59
2021/12/06 09:21:38;;;;;;;70.70;29.20;;;2.60;99.90;;;;;;4928413;29;20078;-59
2021/12/06 09:24:11;;;;;;;68.03;29.20;;;2.60;99.90;;;;;;4935468;29;20106;-59
2021/12/06 09:26:37;;;;;;;75.85;30.48;;;2.70;99.90;;;;;;4909323;29;20051;-59
2021/12/06 09:29:04;;;;;;;76.93;30.45;;;2.70;99.90;;;;;;4925782;29;20050;-59
2021/12/06 09:31:30;;;;;;;74.25;30.90;;;2.70;99.90;;;;;;4927123;29;20191;-58
2021/12/06 09:33:56;;;;;;;68.10;27.85;;;2.70;99.90;;;;;;4925604;29;20098;-59
2021/12/06 09:36:22;;;;;;;64.65;27.40;;;2.70;99.90;;;;;;4922740;29;20534;-58
2021/12/06 09:38:49;;;;;;;68.13;28.33;;;2.70;99.90;;;;;;4910600;29;20055;-59
2021/12/06 09:41:22;;;;;;;62.53;26.80;;;2.80;99.90;;;;;;4918148;29;20059;-59
2021/12/06 09:43:51;;;;;;;62.03;27.30;;;2.80;99.90;;;;;;4927020;29;20561;-59
2021/12/06 09:46:18;;;;;;;67.63;28.38;;;2.80;99.90;;;;;;4922225;29;20040;-59
2021/12/06 09:48:48;;;;;;;61.58;27.33;;;2.80;99.90;;;;;;4924136;29;20087;-60
2021/12/06 09:51:21;;;;;;;62.13;26.83;;;2.80;99.90;;;;;;4919945;29;20043;-59
2021/12/06 09:53:50;;;;;;;63.55;27.83;;;2.80;99.90;;;;;;4923163;29;20060;-59
2021/12/06 09:56:23;;;;;;;62.55;25.95;;;2.80;99.90;;;;;;4916459;29;20039;-59
2021/12/06 09:58:50;;;;;;;54.08;25.02;;;2.80;99.90;;;;;;4908529;29;20055;-59
2021/12/06 10:01:24;;;;;;;56.83;26.10;;;2.80;99.90;;;;;;4926133;29;20048;-60
2021/12/06 10:03:53;;;;;;;52.70;23.48;;;2.90;99.90;;;;;;4906705;29;20058;-59
2021/12/06 10:06:20;;;;;;;51.90;23.95;;;2.80;99.90;;;;;;4908013;29;20079;-59
2021/12/06 10:08:50;;;;;;;51.78;24.13;;;2.80;99.90;;;;;;4887196;29;20499;-59
2021/12/06 10:11:17;;;;;;;53.03;25.02;;;2.80;99.90;;;;;;4885887;29;20106;-58
2021/12/06 10:13:44;;;;;;;48.92;23.15;;;2.80;99.90;;;;;;4904364;29;20074;-59
2021/12/06 10:16:11;;;;;;;43.78;20.77;;;2.90;99.90;;;;;;4924579;29;20297;-59
2021/12/06 10:18:38;;;;;;;45.42;22.65;;;2.80;99.90;;;;;;4906434;29;20471;-59
2021/12/06 10:21:05;;;;;;;44.90;22.33;;;2.80;99.90;;;;;;4889807;29;20047;-58
2021/12/06 10:23:32;;;;;;;46.60;22.05;;;2.80;99.90;;;;;;4899431;29;20119;-60
2021/12/06 10:25:57;;;;;;;49.67;21.75;;;2.80;99.90;;;;;;4915016;29;20040;-59
2021/12/06 10:28:29;;;;;;;46.17;22.38;;;2.80;99.90;;;;;;4928607;29;20547;-60
2021/12/06 10:31:00;;;;;;;50.72;23.20;;;2.80;99.90;;;;;;4929293;29;20103;-59
2021/12/06 10:33:29;;;;;;;47.33;22.40;;;2.70;99.90;;;;;;4914358;29;20057;-59
2021/12/06 10:35:58;;;;;;;47.33;22.17;;;2.70;99.90;;;;;;4911909;29;20043;-58
2021/12/06 10:38:28;;;;;;;44.70;22.35;;;2.70;99.90;;;;;;4928537;29;20058;-59
2021/12/06 10:40:59;;;;;;;45.38;21.77;;;2.80;99.90;;;;;;4924367;29;20051;-59
2021/12/06 10:43:26;;;;;;;48.75;22.17;;;2.80;99.90;;;;;;4909796;29;20040;-60
2021/12/06 10:45:54;;;;;;;43.20;21.40;;;2.80;99.90;;;;;;4928794;29;20050;-60
2021/12/06 10:48:32;;;;;;;43.75;20.42;;;2.80;99.90;;;;;;4911317;29;20487;-59
2021/12/06 10:51:05;;;;;;;42.05;21.38;;;2.80;99.90;;;;;;4929015;29;20091;-59
2021/12/06 10:53:36;;;;;;;44.35;20.95;;;2.90;99.90;;;;;;4926212;29;20070;-59
2021/12/06 10:56:03;;;;;;;49.10;20.55;;;2.90;99.90;;;;;;4892660;29;20418;-60
2021/12/06 10:58:30;;;;;;;41.58;20.27;;;2.90;99.90;;;;;;4927861;29;20070;-59
2021/12/06 11:01:04;;;;;;;49.58;22.27;;;2.90;99.90;;;;;;4912886;29;20052;-59
2021/12/06 11:03:58;;;;;;;42.05;21.00;;;2.90;99.90;;;;;;4928214;29;20043;-60
2021/12/06 11:06:29;;;;;;;42.92;21.55;;;2.90;99.90;;;;;;4905950;29;20628;-58
2021/12/06 11:08:58;;;;;;;44.65;20.90;;;2.90;99.90;;;;;;4927435;29;20066;-59
2021/12/06 11:11:28;;;;;;;37.97;20.42;;;2.90;99.90;;;;;;4905684;29;20036;-59
2021/12/06 11:14:04;;;;;;;40.28;20.25;;;2.90;99.90;;;;;;4906849;29;20046;-59
2021/12/06 11:16:33;;;;;;;40.53;21.52;;;2.90;99.90;;;;;;4903583;29;20044;-59
2021/12/06 11:19:12;;;;;;;44.70;21.55;;;2.90;99.90;;;;;;4892999;29;20056;-60
2021/12/06 11:21:44;;;;;;;43.42;21.92;;;2.90;99.90;;;;;;4910173;29;20051;-59
2021/12/06 11:24:15;;;;;;;42.92;21.95;;;2.90;99.90;;;;;;4906654;29;20111;-58
2021/12/06 11:26:52;;;;;;;44.17;21.98;;;2.90;99.90;;;;;;4922673;29;20479;-59
2021/12/06 11:29:26;;;;;;;43.58;21.80;;;2.90;99.90;;;;;;4903852;29;20079;-59
2021/12/06 11:32:14;;;;;;;49.55;22.40;;;2.90;99.90;;;;;;4920016;29;20055;-59
2021/12/06 11:35:13;;;;;;;47.92;23.88;;;2.90;99.90;;;;;;4901800;29;20044;-58
2021/12/06 11:37:47;;;;;;;54.15;25.83;;;2.90;99.90;;;;;;4920528;29;20059;-59
2021/12/06 11:40:26;;;;;;;55.53;25.63;;;2.90;99.90;;;;;;4929344;29;20052;-59
2021/12/06 11:43:00;;;;;;;53.53;25.33;;;2.90;99.90;;;;;;4907291;29;20517;-60
2021/12/06 11:45:48;;;;;;;56.53;26.98;;;2.90;99.90;;;;;;4911269;29;20054;-59
2021/12/06 11:48:26;;;;;;;61.28;27.80;;;2.90;99.90;;;;;;4930821;29;20059;-60
2021/12/06 11:51:07;;;;;;;66.25;29.60;;;2.90;99.90;;;;;;4904247;29;20162;-59
2021/12/06 11:53:58;;;;;;;65.47;31.08;;;3.00;99.90;;;;;;4924279;29;20062;-60
2021/12/06 11:56:37;;;;;;;58.60;29.25;;;3.00;99.90;;;;;;4902069;29;20425;-59
2021/12/06 11:59:06;;;;;;;56.42;27.58;;;3.00;99.90;;;;;;4894912;29;20056;-59
2021/12/06 12:01:41;;;;;;;57.92;27.67;;;3.00;99.90;;;;;;4906246;29;20446;-59
2021/12/06 12:04:29;;;;;;;60.08;28.08;;;3.00;99.90;;;;;;4909166;29;20131;-60
2021/12/06 12:06:56;;;;;;;56.85;26.92;;;3.10;99.90;;;;;;4889206;29;20394;-60
2021/12/06 12:09:25;;;;;;;53.05;25.58;;;3.10;99.90;;;;;;4914667;29;20103;-60
2021/12/06 12:12:02;;;;;;;45.10;22.83;;;3.10;99.90;;;;;;4891599;29;20048;-61
2021/12/06 12:14:50;;;;;;;44.90;21.83;;;3.20;99.90;;;;;;4909119;29;20118;-59
2021/12/06 12:17:18;;;;;;;40.83;21.42;;;3.20;99.90;;;;;;4908337;29;20146;-61
2021/12/06 12:19:44;;;;;;;34.83;20.05;;;3.30;99.90;;;;;;4907852;29;20047;-58
2021/12/06 12:22:12;;;;;;;37.78;19.60;;;3.30;99.90;;;;;;4907216;29;20407;-60
2021/12/06 12:24:42;;;;;;;39.05;19.38;;;3.30;99.90;;;;;;4906613;29;20086;-61
2021/12/06 12:29:47;;;;;;;37.05;19.17;;;3.20;99.90;;;;;;4909788;29;20050;-60
2021/12/06 12:32:15;;;;;;;37.08;19.70;;;3.20;99.90;;;;;;4910418;29;20566;-59
2021/12/06 12:34:45;;;;;;;35.80;19.05;;;3.20;99.90;;;;;;4906290;29;20083;-58
2021/12/06 12:37:13;;;;;;;35.92;18.48;;;3.20;99.90;;;;;;4906988;29;20359;-60
2021/12/06 12:39:39;;;;;;;38.50;19.27;;;3.20;99.90;;;;;;4909378;29;20079;-58
2021/12/06 12:42:07;;;;;;;35.28;19.33;;;3.20;99.90;;;;;;4924611;29;20467;-60
2021/12/06 12:44:52;;;;;;;42.53;21.77;;;3.20;99.90;;;;;;4893149;29;20079;-60
2021/12/06 12:47:24;;;;;;;39.03;20.33;;;3.20;99.90;;;;;;4927654;29;20059;-60
2021/12/06 12:49:57;;;;;;;42.63;20.55;;;3.20;99.90;;;;;;4923284;29;20070;-60
2021/12/06 12:52:45;;;;;;;38.88;20.67;;;3.20;99.90;;;;;;4909050;29;20387;-58
2021/12/06 12:55:32;;;;;;;40.10;20.75;;;3.10;99.90;;;;;;4925387;29;20059;-59
2021/12/06 12:58:07;;;;;;;38.08;20.10;;;3.10;99.90;;;;;;4925071;29;20172;-58
2021/12/06 13:00:42;;;;;;;37.47;19.77;;;3.10;99.90;;;;;;4941325;28;20043;-59
2021/12/06 13:03:32;;;;;;;41.80;20.27;;;3.10;99.90;;;;;;4925052;29;20047;-60
2021/12/06 13:06:22;;;;;;;42.03;21.20;;;3.10;99.90;;;;;;4924022;29;20068;-59